Time;durP1;ratioP1;P1;durP2;ratioP2;P2;SDS_P1;SDS_P2;PMS_P1;PMS_P2;Temp;Humidity;BMP_temperature;BMP_pressure;BME280_temperature;BME280_humidity;BME280_pressure;Samples;Min_cycle;Max_cycle;Signal;HPM_P1;HPM_P2
2021/05/02 00:03:15;;;;;;;15.58;13.98;;;;;;;8.74;100.00;99888.50;256529;1104;103171;-80
2021/05/02 00:08:17;;;;;;;15.70;14.13;;;;;;;8.79;100.00;99875.88;256656;1104;103225;-80
2021/05/02 00:13:20;;;;;;;16.58;14.80;;;;;;;8.81;100.00;99859.90;256608;1104;103223;-80
2021/05/02 00:18:26;;;;;;;16.37;14.77;;;;;;;8.76;100.00;99847.65;257123;1104;103448;-80
2021/05/02 00:23:34;;;;;;;16.13;14.53;;;;;;;8.75;100.00;99863.66;256352;1104;103208;-82
2021/05/02 00:28:38;;;;;;;14.48;13.05;;;;;;;8.68;100.00;99864.84;256654;1104;103169;-82
2021/05/02 00:33:41;;;;;;;14.57;13.10;;;;;;;8.73;100.00;99854.88;256677;1100;103217;-81
2021/05/02 00:38:43;;;;;;;14.78;13.38;;;;;;;8.77;100.00;99862.67;256679;1099;103090;-81
2021/05/02 00:43:51;;;;;;;15.43;13.93;;;;;;;8.74;100.00;99852.15;256230;1100;103167;-79
2021/05/02 00:49:02;;;;;;;14.40;12.98;;;;;;;8.71;100.00;99851.41;256666;1100;103169;-80
2021/05/02 00:54:07;;;;;;;13.58;12.20;;;;;;;8.69;100.00;99838.20;256628;1104;103169;-79
2021/05/02 00:59:27;;;;;;;;;;;;;;;8.73;100.00;99834.50;256643;1100;103164;-80
2021/05/02 01:04:31;;;;;;;14.95;13.45;;;;;;;8.74;100.00;99819.41;256498;1099;103103;-80
2021/05/02 01:09:33;;;;;;;13.50;12.30;;;;;;;8.70;100.00;99841.73;256464;1100;103172;-80
2021/05/02 01:14:37;;;;;;;14.10;12.70;;;;;;;8.65;100.00;99846.35;256599;1104;103211;-80
2021/05/02 01:19:40;;;;;;;14.58;12.88;;;;;;;8.62;100.00;99831.41;256811;1104;103111;-80
2021/05/02 01:24:50;;;;;;;14.35;12.70;;;;;;;8.66;100.00;99835.69;257775;1104;103172;-79
2021/05/02 01:29:52;;;;;;;13.57;12.17;;;;;;;8.69;100.00;99822.25;256936;1100;103099;-80
2021/05/02 01:34:54;;;;;;;14.60;13.28;;;;;;;8.65;100.00;99796.75;256615;1100;103100;-81
2021/05/02 01:39:57;;;;;;;14.03;12.58;;;;;;;8.58;100.00;99776.68;256251;1104;103151;-81
2021/05/02 01:44:58;;;;;;;13.83;12.33;;;;;;;8.48;100.00;99775.31;256649;1104;103102;-81
2021/05/02 01:50:04;;;;;;;13.30;11.35;;;;;;;8.48;100.00;99754.06;256674;1104;103190;-79
2021/05/02 01:55:07;;;;;;;13.60;12.30;;;;;;;8.48;100.00;99754.06;256753;1099;103313;-79
2021/05/02 02:00:25;;;;;;;13.80;12.55;;;;;;;8.45;100.00;99744.41;256900;1104;103202;-82
2021/05/02 02:05:30;;;;;;;14.67;13.27;;;;;;;8.39;100.00;99742.86;256640;1104;104225;-80
2021/05/02 02:10:34;;;;;;;13.70;12.10;;;;;;;8.31;100.00;99742.34;256583;1105;103192;-80
2021/05/02 02:15:36;;;;;;;13.58;12.28;;;;;;;8.37;100.00;99731.45;256457;1104;103164;-80
2021/05/02 02:20:43;;;;;;;14.93;13.28;;;;;;;8.39;100.00;99715.45;256622;1104;103105;-80
2021/05/02 02:25:48;;;;;;;14.83;13.43;;;;;;;8.35;100.00;99690.81;256760;1104;103069;-80
2021/05/02 02:30:55;;;;;;;;;;;;;;;8.30;100.00;99677.72;256630;1104;103220;-81
2021/05/02 02:36:00;;;;;;;13.75;11.45;;;;;;;8.34;100.00;99678.45;256739;1104;103095;-80
2021/05/02 02:41:02;;;;;;;13.23;11.87;;;;;;;8.40;100.00;99672.88;256524;1100;103110;-80
2021/05/02 02:46:05;;;;;;;13.23;11.90;;;;;;;8.45;100.00;99670.92;256672;1104;103170;-80
2021/05/02 02:51:12;;;;;;;15.33;13.78;;;;;;;8.42;100.00;99655.09;256754;1104;103124;-80
2021/05/02 02:56:17;;;;;;;12.75;11.55;;;;;;;8.35;100.00;99627.08;256761;1104;103175;-80
2021/05/02 03:01:20;;;;;;;12.35;11.15;;;;;;;8.38;100.00;99616.34;256777;1099;103629;-80
2021/05/02 03:06:26;;;;;;;14.48;11.80;;;;;;;8.39;100.00;99598.59;256742;1100;103243;-79
2021/05/02 03:11:28;;;;;;;12.87;11.67;;;;;;;8.38;100.00;99611.03;256843;1100;103113;-80
2021/05/02 03:16:31;;;;;;;13.13;11.80;;;;;;;8.36;100.00;99612.88;256667;1104;103535;-82
2021/05/02 03:22:08;;;;;;;11.08;9.85;;;;;;;8.40;100.00;99593.20;256869;1100;103170;-82
2021/05/02 03:27:34;;;;;;;12.17;10.90;;;;;;;8.41;100.00;99584.31;256653;1100;103461;-79
2021/05/02 03:32:37;;;;;;;12.15;10.95;;;;;;;8.41;100.00;99589.63;256737;1104;103245;-80
2021/05/02 03:37:43;;;;;;;13.50;12.20;;;;;;;8.35;100.00;99573.97;256723;1099;103169;-80
2021/05/02 03:42:45;;;;;;;12.40;10.93;;;;;;;8.40;100.00;99558.69;256740;1099;103166;-80
2021/05/02 03:47:47;;;;;;;11.90;10.78;;;;;;;8.40;100.00;99548.06;256691;1100;103167;-80
2021/05/02 03:52:49;;;;;;;12.55;10.45;;;;;;;8.43;100.00;99553.25;256694;1099;103170;-82
2021/05/02 03:57:51;;;;;;;13.45;10.35;;;;;;;8.40;100.00;99566.66;256594;1104;103238;-81
2021/05/02 04:02:52;;;;;;;11.95;10.75;;;;;;;8.45;100.00;99572.64;256634;1100;104598;-81
2021/05/02 04:07:55;;;;;;;13.45;11.50;;;;;;;8.52;100.00;99551.15;256839;1100;103119;-80
2021/05/02 04:12:57;;;;;;;12.65;11.45;;;;;;;8.48;100.00;99579.64;256771;1104;103595;-80
2021/05/02 04:17:58;;;;;;;12.20;10.38;;;;;;;8.47;100.00;99575.25;256763;1100;103065;-79
2021/05/02 04:23:00;;;;;;;11.90;9.68;;;;;;;8.53;100.00;99547.56;256791;1104;103238;-79
2021/05/02 04:28:02;;;;;;;15.28;13.65;;;;;;;8.60;100.00;99525.08;256471;1104;103595;-80
2021/05/02 04:33:04;;;;;;;12.95;10.80;;;;;;;8.61;100.00;99517.05;256609;1100;103164;-80
2021/05/02 04:38:05;;;;;;;12.38;11.08;;;;;;;8.59;100.00;99510.09;256580;1099;103192;-81
2021/05/02 04:43:10;;;;;;;10.88;9.78;;;;;;;8.61;100.00;99501.12;256680;1099;103194;-81
2021/05/02 04:48:12;;;;;;;11.75;10.65;;;;;;;8.72;100.00;99494.42;256588;1104;103216;-81
2021/05/02 04:53:14;;;;;;;12.50;11.25;;;;;;;8.71;100.00;99498.89;256541;1104;103110;-80
2021/05/02 04:58:16;;;;;;;12.15;11.05;;;;;;;8.69;100.00;99503.41;256623;1099;103239;-80
2021/05/02 05:03:17;;;;;;;11.63;10.43;;;;;;;8.76;100.00;99488.90;256725;1099;103100;-80
2021/05/02 05:08:19;;;;;;;12.77;11.47;;;;;;;8.85;100.00;99470.80;256551;1100;103181;-81
2021/05/02 05:13:21;;;;;;;12.13;10.93;;;;;;;8.92;100.00;99458.94;256204;1104;103553;-80
2021/05/02 05:18:24;;;;;;;12.20;10.97;;;;;;;8.88;100.00;99465.36;256493;1100;103174;-81
2021/05/02 05:23:26;;;;;;;11.37;10.33;;;;;;;8.93;100.00;99452.70;256826;1104;103169;-81
2021/05/02 05:28:27;;;;;;;12.13;10.90;;;;;;;8.97;100.00;99438.31;256625;1099;103112;-79
2021/05/02 05:33:31;;;;;;;12.98;11.60;;;;;;;9.01;100.00;99444.34;256673;1104;103113;-78
2021/05/02 05:38:33;;;;;;;12.63;11.35;;;;;;;8.97;100.00;99440.97;256548;1100;103154;-77
2021/05/02 05:43:34;;;;;;;11.87;10.67;;;;;;;8.96;100.00;99420.63;256712;1099;103168;-78
2021/05/02 05:48:36;;;;;;;12.15;11.05;;;;;;;9.02;100.00;99414.16;256474;1105;103097;-78
2021/05/02 05:53:38;;;;;;;11.73;10.58;;;;;;;9.04;100.00;99405.17;256671;1104;103496;-79
2021/05/02 05:58:40;;;;;;;12.03;10.78;;;;;;;9.04;100.00;99401.67;256599;1100;103202;-77
2021/05/02 06:03:42;;;;;;;12.05;10.88;;;;;;;9.03;100.00;99394.63;256601;1104;103146;-78
2021/05/02 06:08:43;;;;;;;12.85;11.65;;;;;;;9.12;100.00;99364.93;256536;1100;114625;-79
2021/05/02 06:13:45;;;;;;;12.38;11.20;;;;;;;9.16;100.00;99341.70;256241;1100;114813;-81
2021/05/02 06:18:47;;;;;;;11.93;10.73;;;;;;;9.23;100.00;99329.82;255739;1100;115129;-80
2021/05/02 06:23:50;;;;;;;11.73;10.63;;;;;;;9.26;100.00;99321.66;256198;1099;114757;-78
2021/05/02 06:28:52;;;;;;;12.20;11.05;;;;;;;9.30;100.00;99301.97;256471;1099;114505;-78
2021/05/02 06:33:53;;;;;;;11.83;10.70;;;;;;;9.31;100.00;99285.05;256141;1104;115036;-80
2021/05/02 06:38:55;;;;;;;11.40;10.23;;;;;;;9.34;100.00;99276.08;256184;1099;114831;-79
2021/05/02 06:43:57;;;;;;;10.98;9.88;;;;;;;9.38;100.00;99281.13;256245;1104;114644;-80
2021/05/02 06:49:03;;;;;;;11.88;10.78;;;;;;;9.40;100.00;99255.31;256134;1100;114596;-79
2021/05/02 06:54:06;;;;;;;11.58;10.48;;;;;;;9.39;100.00;99242.11;256102;1104;114804;-79
2021/05/02 06:59:08;;;;;;;12.70;10.68;;;;;;;9.40;100.00;99228.71;256405;1100;114744;-79
2021/05/02 07:04:10;;;;;;;12.38;10.85;;;;;;;9.43;100.00;99222.37;256231;1098;114658;-79
2021/05/02 07:09:12;;;;;;;11.73;10.50;;;;;;;9.40;100.00;99191.48;256164;1100;114597;-80
2021/05/02 07:14:13;;;;;;;10.73;9.73;;;;;;;9.39;100.00;99178.27;255076;1105;115019;-78
2021/05/02 07:19:16;;;;;;;12.03;10.93;;;;;;;9.49;100.00;99136.06;254952;1100;114423;-79
2021/05/02 07:24:18;;;;;;;11.78;10.73;;;;;;;9.52;100.00;99112.80;255180;1107;115209;-79
2021/05/02 07:29:20;;;;;;;12.03;10.98;;;;;;;9.47;100.00;99103.36;255627;1106;114720;-79
2021/05/02 07:34:23;;;;;;;11.17;9.87;;;;;;;9.50;100.00;99095.22;255102;1107;114441;-79
2021/05/02 07:39:25;;;;;;;11.93;10.83;;;;;;;9.48;100.00;99079.32;255158;1100;114414;-78
2021/05/02 07:44:27;;;;;;;10.60;9.60;;;;;;;9.48;100.00;99081.98;255089;1107;114734;-79
2021/05/02 07:49:29;;;;;;;11.48;10.45;;;;;;;9.49;100.00;99066.90;255086;1100;114405;-78
2021/05/02 07:54:31;;;;;;;10.45;9.55;;;;;;;9.53;100.00;99041.83;255074;1107;114907;-80
2021/05/02 07:59:32;;;;;;;11.60;10.50;;;;;;;9.53;100.00;99032.06;255145;1100;115226;-78
2021/05/02 08:04:39;;;;;;;12.08;10.90;;;;;;;9.50;100.00;99026.06;255175;1106;115270;-79
2021/05/02 08:09:40;;;;;;;10.75;9.35;;;;;;;9.43;100.00;99044.16;255114;1100;114727;-78
2021/05/02 08:14:42;;;;;;;10.63;9.65;;;;;;;9.45;100.00;99020.13;255111;1106;114884;-78
2021/05/02 08:19:44;;;;;;;11.97;10.87;;;;;;;9.43;100.00;99014.05;255095;1100;114371;-78
2021/05/02 08:24:46;;;;;;;11.28;10.28;;;;;;;9.31;100.00;99024.43;255084;1107;114541;-78
2021/05/02 08:29:47;;;;;;;9.95;9.15;;;;;;;9.35;100.00;99004.71;255178;1100;114781;-79
2021/05/02 08:34:49;;;;;;;10.30;9.30;;;;;;;9.38;100.00;99001.02;255473;1100;114539;-78
2021/05/02 08:39:51;;;;;;;11.80;10.70;;;;;;;9.38;100.00;98991.22;255239;1100;114750;-78
2021/05/02 08:44:53;;;;;;;12.80;11.58;;;;;;;9.30;100.00;99027.19;255422;1100;115108;-78
2021/05/02 08:49:54;;;;;;;11.78;10.68;;;;;;;9.28;100.00;99024.62;255941;1106;114656;-77
2021/05/02 08:54:56;;;;;;;10.83;9.88;;;;;;;9.28;100.00;98982.07;255294;1106;114708;-76
2021/05/02 08:59:59;;;;;;;11.13;10.08;;;;;;;9.32;100.00;98967.64;255091;1100;115307;-78
2021/05/02 09:05:04;;;;;;;12.38;11.25;;;;;;;9.27;100.00;98961.74;255133;1100;114785;-77
2021/05/02 09:10:06;;;;;;;10.48;9.45;;;;;;;9.24;100.00;98964.56;255150;1107;114446;-76
2021/05/02 09:15:17;;;;;;;11.05;9.95;;;;;;;9.25;100.00;98980.45;255042;1106;114685;-75
2021/05/02 09:20:42;;;;;;;11.80;10.70;;;;;;;9.26;100.00;98965.34;255058;1100;114534;-77
2021/05/02 09:25:46;;;;;;;13.68;12.33;;;;;;;9.19;100.00;98917.00;255041;1100;115083;-76
2021/05/02 09:31:05;;;;;;;11.70;10.60;;;;;;;9.20;100.00;98928.47;255216;1100;114870;-76
2021/05/02 09:36:09;;;;;;;12.48;11.28;;;;;;;9.28;100.00;98918.26;255276;1100;114514;-76
2021/05/02 09:41:13;;;;;;;12.53;11.33;;;;;;;9.32;100.00;98905.64;256109;1104;114735;-76
2021/05/02 09:46:28;;;;;;;13.15;11.95;;;;;;;9.29;100.00;98879.21;256468;1100;114816;-78
2021/05/02 09:51:31;;;;;;;13.70;12.35;;;;;;;9.24;100.00;98858.20;256084;1104;115071;-79
2021/05/02 09:56:32;;;;;;;12.98;11.35;;;;;;;9.26;100.00;98843.03;256020;1100;114942;-79
2021/05/02 10:01:34;;;;;;;12.83;11.63;;;;;;;9.30;100.00;98811.80;256199;1099;114458;-77
2021/05/02 10:06:36;;;;;;;12.95;11.75;;;;;;;9.28;100.00;98798.59;256068;1104;114711;-77
2021/05/02 10:11:38;;;;;;;12.25;11.13;;;;;;;9.24;100.00;98797.92;256094;1100;114939;-77
2021/05/02 10:16:40;;;;;;;12.30;11.10;;;;;;;9.27;100.00;98820.81;256072;1100;114567;-75
2021/05/02 10:21:42;;;;;;;13.28;12.08;;;;;;;9.26;100.00;98827.08;256146;1100;114794;-75
2021/05/02 10:26:43;;;;;;;13.23;11.98;;;;;;;9.30;100.00;98817.11;256092;1104;114516;-76
2021/05/02 10:31:45;;;;;;;12.85;11.55;;;;;;;9.22;100.00;98798.97;256102;1104;116455;-75
2021/05/02 10:36:47;;;;;;;12.78;11.58;;;;;;;9.36;100.00;98788.36;256123;1100;114925;-78
2021/05/02 10:41:49;;;;;;;12.13;10.97;;;;;;;9.40;100.00;98781.05;256260;1104;114693;-78
2021/05/02 10:46:57;;;;;;;13.90;12.63;;;;;;;9.41;100.00;98762.33;256487;1104;114405;-79
2021/05/02 10:52:29;;;;;;;14.35;13.08;;;;;;;9.38;100.00;98756.34;256409;1104;114806;-77
2021/05/02 10:57:37;;;;;;;13.23;12.03;;;;;;;9.38;100.00;98730.59;256353;1100;114843;-76
2021/05/02 11:02:44;;;;;;;13.75;12.25;;;;;;;9.43;100.00;98726.81;255963;1104;114537;-75
2021/05/02 11:07:48;;;;;;;13.25;12.00;;;;;;;9.46;100.00;98715.97;256155;1104;114722;-75
2021/05/02 11:12:50;;;;;;;14.55;13.15;;;;;;;9.49;100.00;98705.15;256249;1100;114717;-76
2021/05/02 11:17:55;;;;;;;14.25;13.03;;;;;;;9.54;100.00;98679.98;256131;1100;114762;-76
2021/05/02 11:22:57;;;;;;;13.85;12.60;;;;;;;9.58;100.00;98670.00;255964;1104;114476;-76
2021/05/02 11:28:01;;;;;;;12.70;11.53;;;;;;;9.64;100.00;98666.07;256141;1099;115036;-76
2021/05/02 11:33:20;;;;;;;13.65;12.45;;;;;;;9.67;100.00;98655.25;256313;1104;114618;-77
2021/05/02 11:38:34;;;;;;;14.00;12.70;;;;;;;9.67;100.00;98634.80;256096;1104;114956;-75
2021/05/02 11:43:38;;;;;;;15.43;13.95;;;;;;;9.73;100.00;98629.08;255694;1104;114539;-77
2021/05/02 11:48:41;;;;;;;14.50;13.20;;;;;;;9.73;100.00;98612.28;256217;1104;114453;-77
2021/05/02 11:53:54;;;;;;;14.25;12.85;;;;;;;9.73;100.00;98594.49;256274;1104;114762;-76
2021/05/02 11:59:06;;;;;;;14.48;13.20;;;;;;;9.81;100.00;98601.99;256144;1100;114987;-77
2021/05/02 12:04:10;;;;;;;15.90;14.45;;;;;;;9.80;100.00;98592.30;256327;1099;114900;-75
2021/05/02 12:09:25;;;;;;;16.48;14.98;;;;;;;9.84;100.00;98592.95;255989;1099;114640;-77
2021/05/02 12:14:32;;;;;;;16.50;14.93;;;;;;;9.90;100.00;98587.22;256182;1104;114453;-76
2021/05/02 12:19:36;;;;;;;16.25;14.65;;;;;;;9.97;100.00;98577.88;255918;1104;116220;-74
2021/05/02 12:24:38;;;;;;;15.55;14.25;;;;;;;10.10;100.00;98561.94;256457;1105;114658;-75
2021/05/02 12:29:44;;;;;;;16.48;14.90;;;;;;;10.13;100.00;98556.39;255429;1107;116570;-75
2021/05/02 12:34:51;;;;;;;17.88;16.28;;;;;;;10.20;100.00;98540.87;256266;1100;115343;-74
2021/05/02 12:39:54;;;;;;;18.45;16.70;;;;;;;10.31;100.00;98535.64;256247;1104;115037;-74
2021/05/02 12:44:56;;;;;;;17.80;16.13;;;;;;;10.30;100.00;98525.95;256093;1099;114947;-74
2021/05/02 12:50:06;;;;;;;15.93;14.53;;;;;;;10.40;100.00;98520.87;256085;1104;115132;-74
2021/05/02 12:55:27;;;;;;;17.90;16.20;;;;;;;10.52;100.00;98513.84;256018;1104;114915;-72
2021/05/02 13:00:52;;;;;;;19.50;17.70;;;;;;;10.60;100.00;98514.16;255446;1104;114976;-73
2021/05/02 13:06:01;;;;;;;19.60;17.80;;;;;;;10.66;100.00;98519.05;255705;1104;115227;-72
2021/05/02 13:11:22;;;;;;;19.33;17.40;;;;;;;10.70;100.00;98505.53;256509;1104;115365;-72
2021/05/02 13:16:40;;;;;;;18.00;16.38;;;;;;;10.75;100.00;98509.55;256350;1099;115057;-74
2021/05/02 13:21:41;;;;;;;19.93;18.10;;;;;;;10.83;100.00;98519.69;255833;1104;114796;-72
2021/05/02 13:26:44;;;;;;;16.65;15.15;;;;;;;10.95;100.00;98521.47;255388;1100;114722;-72
2021/05/02 13:31:54;;;;;;;17.18;15.68;;;;;;;11.28;100.00;98522.66;255738;1100;114862;-73
2021/05/02 13:36:59;;;;;;;10.70;9.70;;;;;;;11.48;100.00;98531.04;255448;1099;115017;-73
2021/05/02 13:42:01;;;;;;;9.73;8.93;;;;;;;11.52;100.00;98524.50;255444;1104;114948;-72
2021/05/02 13:47:02;;;;;;;9.30;8.40;;;;;;;11.53;100.00;98550.22;255417;1100;114601;-71
2021/05/02 13:52:04;;;;;;;11.85;9.48;;;;;;;11.38;100.00;98543.33;255394;1100;114768;-72
2021/05/02 13:57:05;;;;;;;7.63;6.95;;;;;;;11.09;100.00;98560.48;255228;1100;114554;-72
2021/05/02 14:02:07;;;;;;;7.83;7.05;;;;;;;10.95;100.00;98558.80;255298;1104;115329;-75
2021/05/02 14:07:09;;;;;;;6.55;6.05;;;;;;;10.83;100.00;98568.50;255294;1104;114629;-74
2021/05/02 14:12:11;;;;;;;5.77;5.37;;;;;;;10.78;100.00;98573.31;255752;1104;114706;-74
2021/05/02 14:17:13;;;;;;;5.93;5.43;;;;;;;10.67;100.00;98576.72;255338;1104;114543;-72
2021/05/02 14:22:15;;;;;;;5.75;5.25;;;;;;;10.59;100.00;98581.73;255427;1104;114854;-72
2021/05/02 14:27:17;;;;;;;5.50;5.10;;;;;;;10.54;100.00;98586.53;255593;1104;114942;-75
2021/05/02 14:32:20;;;;;;;4.03;3.70;;;;;;;10.45;100.00;98588.02;255736;1100;114491;-75
2021/05/02 14:37:25;;;;;;;4.13;3.73;;;;;;;10.33;100.00;98589.67;255846;1104;114593;-74
2021/05/02 14:42:27;;;;;;;3.77;3.47;;;;;;;10.35;100.00;98578.91;255414;1104;114456;-74
2021/05/02 14:47:29;;;;;;;4.00;3.60;;;;;;;10.29;100.00;98588.16;255376;1104;114485;-74
2021/05/02 14:52:31;;;;;;;4.53;3.53;;;;;;;10.15;100.00;98581.11;255411;1098;114608;-72
2021/05/02 14:57:36;;;;;;;4.03;3.50;;;;;;;10.03;100.00;98577.45;255383;1099;114730;-74
2021/05/02 15:02:37;;;;;;;4.75;3.28;;;;;;;9.95;100.00;98585.09;255178;1099;114477;-72
2021/05/02 15:07:40;;;;;;;3.15;2.85;;;;;;;9.92;100.00;98585.32;255236;1105;114373;-72
2021/05/02 15:12:46;;;;;;;3.53;2.95;;;;;;;9.86;100.00;98577.74;255776;1104;113735;-71
2021/05/02 15:17:48;;;;;;;2.95;2.75;;;;;;;9.86;100.00;98569.76;255876;1100;103172;-73
2021/05/02 15:22:50;;;;;;;3.25;2.70;;;;;;;9.85;100.00;98581.36;255827;1104;103189;-71
2021/05/02 15:27:52;;;;;;;2.23;1.90;;;;;;;9.85;100.00;98573.38;255483;1104;103170;-71
2021/05/02 15:32:53;;;;;;;2.30;2.08;;;;;;;9.68;100.00;98603.75;255902;1104;103106;-72
2021/05/02 15:37:55;;;;;;;5.17;4.03;;;;;;;9.51;100.00;98612.82;256015;1100;103103;-72
2021/05/02 15:42:57;;;;;;;2.63;2.43;;;;;;;9.34;100.00;98606.77;255794;1104;114858;-71
2021/05/02 15:47:59;;;;;;;1.70;1.60;;;;;;;9.29;100.00;98587.59;255542;1104;114700;-72
2021/05/02 15:53:02;;;;;;;3.15;2.80;;;;;;;9.09;100.00;98592.34;255455;1100;114286;-71
2021/05/02 15:58:03;;;;;;;2.48;2.28;;;;;;;8.88;100.00;98599.02;255643;1105;114315;-75
2021/05/02 16:03:05;;;;;;;2.15;1.98;;;;;;;8.66;100.00;98610.09;255373;1104;114706;-74
2021/05/02 16:08:07;;;;;;;2.00;1.90;;;;;;;8.43;100.00;98637.06;255431;1104;114765;-74
2021/05/02 16:13:09;;;;;;;2.90;1.95;;;;;;;8.17;100.00;98645.70;255631;1104;114665;-74
2021/05/02 16:18:13;;;;;;;2.18;2.00;;;;;;;8.05;100.00;98650.76;255296;1104;114654;-74
2021/05/02 16:23:16;;;;;;;2.30;2.10;;;;;;;7.79;100.00;98669.03;255311;1100;114625;-74
2021/05/02 16:28:17;;;;;;;3.40;2.20;;;;;;;7.55;100.00;98686.28;255335;1100;114292;-73
2021/05/02 16:33:19;;;;;;;2.53;2.33;;;;;;;7.57;100.00;98689.72;255773;1104;114185;-76
2021/05/02 16:38:21;;;;;;;3.08;2.80;;;;;;;7.36;100.00;98708.50;256119;1104;114244;-75
2021/05/02 16:43:23;;;;;;;4.37;3.43;;;;;;;7.27;100.00;98703.69;256571;1099;115340;-79
2021/05/02 16:48:25;;;;;;;2.68;2.33;;;;;;;7.30;100.00;98706.19;256510;1104;114475;-80
2021/05/02 16:53:26;;;;;;;2.33;2.13;;;;;;;7.09;100.00;98732.89;255683;1100;114417;-77
2021/05/02 16:58:28;;;;;;;1.73;1.63;;;;;;;7.11;100.00;98741.63;255332;1105;114346;-76
2021/05/02 17:03:30;;;;;;;3.55;1.70;;;;;;;6.94;100.00;98786.66;255337;1104;114263;-75
2021/05/02 17:08:32;;;;;;;2.05;1.75;;;;;;;6.97;100.00;98781.22;256224;1100;114364;-78
2021/05/02 17:13:34;;;;;;;1.95;1.85;;;;;;;6.83;100.00;98795.16;256346;1104;114215;-77
2021/05/02 17:18:36;;;;;;;2.30;1.73;;;;;;;6.54;100.00;98813.34;256311;1104;114479;-78
2021/05/02 17:23:37;;;;;;;1.73;1.40;;;;;;;6.45;100.00;98843.77;256050;1104;114084;-78
2021/05/02 17:28:39;;;;;;;1.50;1.40;;;;;;;6.30;100.00;98858.59;256667;1104;114190;-78
2021/05/02 17:33:41;;;;;;;1.70;1.00;;;;;;;6.10;100.00;98901.00;257706;1099;114095;-77
2021/05/02 17:38:43;;;;;;;1.55;1.45;;;;;;;6.03;100.00;98873.95;259243;1104;113980;-74
2021/05/02 17:43:45;;;;;;;2.00;1.48;;;;;;;5.83;100.00;98919.77;259247;1100;114740;-75
2021/05/02 17:48:47;;;;;;;1.78;1.53;;;;;;;5.85;100.00;98939.08;257030;1100;114389;-74
2021/05/02 17:53:53;;;;;;;2.65;1.50;;;;;;;5.65;100.00;98937.29;256729;1099;114220;-76
2021/05/02 17:58:55;;;;;;;1.05;0.93;;;;;;;5.46;100.00;98975.09;256360;1099;114586;-76
2021/05/02 18:03:56;;;;;;;1.55;1.20;;;;;;;5.26;100.00;98974.14;256524;1099;114441;-76
2021/05/02 18:08:58;;;;;;;0.63;0.63;;;;;;;5.02;100.00;99020.02;256365;1100;114311;-77
2021/05/02 18:14:00;;;;;;;0.85;0.73;;;;;;;4.82;100.00;99048.06;256204;1104;115631;-77
2021/05/02 18:19:02;;;;;;;0.95;0.90;;;;;;;4.76;100.00;99080.82;255772;1104;114915;-77
2021/05/02 18:24:05;;;;;;;1.78;0.70;;;;;;;4.73;100.00;99085.35;255776;1104;114420;-77
2021/05/02 18:29:08;;;;;;;1.17;1.00;;;;;;;4.78;100.00;99099.27;256119;1104;114515;-76
2021/05/02 18:34:12;;;;;;;1.90;1.13;;;;;;;4.57;100.00;99141.37;256218;1099;114553;-75
2021/05/02 18:39:15;;;;;;;0.88;0.78;;;;;;;4.56;100.00;99139.64;256321;1099;114335;-78
2021/05/02 18:44:17;;;;;;;1.98;1.45;;;;;;;4.46;100.00;99159.34;256323;1099;114365;-77
2021/05/02 18:49:19;;;;;;;1.30;1.20;;;;;;;4.30;100.00;99180.12;256369;1104;115021;-77
2021/05/02 18:54:20;;;;;;;2.40;1.10;;;;;;;4.28;100.00;99196.01;256290;1099;114279;-78
2021/05/02 18:59:22;;;;;;;1.08;0.70;;;;;;;3.96;100.00;99221.64;256270;1104;114410;-78
2021/05/02 19:04:24;;;;;;;0.88;0.88;;;;;;;3.82;100.00;99234.39;256365;1099;114074;-79
2021/05/02 19:09:26;;;;;;;0.40;0.40;;;;;;;3.62;100.00;99262.22;256635;1100;113877;-79
2021/05/02 19:14:28;;;;;;;2.60;1.00;;;;;;;3.44;100.00;99257.50;256637;1100;114382;-79
2021/05/02 19:19:30;;;;;;;0.50;0.43;;;;;;;3.25;100.00;99279.08;256593;1104;114008;-80
2021/05/02 19:24:33;;;;;;;1.50;0.40;;;;;;;3.17;100.00;99281.94;255716;1104;114038;-78
2021/05/02 19:29:34;;;;;;;0.63;0.60;;;;;;;3.16;100.00;99308.33;256216;1104;114318;-80
2021/05/02 19:34:36;;;;;;;0.90;0.60;;;;;;;3.00;100.00;99327.16;256277;1100;114213;-77
2021/05/02 19:39:38;;;;;;;1.35;0.68;;;;;;;2.87;100.00;99323.12;256252;1099;113889;-80
2021/05/02 19:44:40;;;;;;;1.28;0.90;;;;;;;2.86;100.00;99337.17;255952;1105;114031;-78
2021/05/02 19:49:41;;;;;;;1.73;0.80;;;;;;;2.84;100.00;99352.13;256126;1104;114198;-79
2021/05/02 19:54:43;;;;;;;0.60;0.60;;;;;;;2.84;100.00;99349.50;256389;1099;114315;-79
2021/05/02 19:59:46;;;;;;;1.08;0.98;;;;;;;2.86;100.00;99372.25;256203;1104;114534;-79
2021/05/02 20:04:48;;;;;;;2.73;1.90;;;;;;;2.84;100.00;99381.09;256367;1099;114558;-79
2021/05/02 20:09:50;;;;;;;1.60;0.80;;;;;;;2.69;100.00;99387.60;256379;1104;113931;-78
2021/05/02 20:14:52;;;;;;;0.83;0.80;;;;;;;2.71;100.00;99384.02;256219;1100;114169;-79
2021/05/02 20:19:53;;;;;;;0.70;0.70;;;;;;;2.80;100.00;99387.34;256323;1104;114340;-80
2021/05/02 20:24:55;;;;;;;1.10;1.00;;;;;;;2.74;100.00;99390.98;255970;1099;114164;-80
2021/05/02 20:29:57;;;;;;;0.80;0.80;;;;;;;2.82;100.00;99401.34;256401;1104;114222;-81
2021/05/02 20:35:01;;;;;;;1.88;0.70;;;;;;;2.93;100.00;99401.93;256108;1099;114211;-80
2021/05/02 20:40:03;;;;;;;0.88;0.83;;;;;;;2.76;100.00;99414.62;256157;1104;113935;-80
2021/05/02 20:45:05;;;;;;;1.95;1.15;;;;;;;2.93;100.00;99420.36;255941;1099;114554;-79
2021/05/02 20:50:08;;;;;;;1.35;1.20;;;;;;;2.81;100.00;99445.20;255715;1105;113927;-80
2021/05/02 20:55:11;;;;;;;2.60;1.80;;;;;;;2.88;100.00;99493.33;256232;1104;114058;-80
2021/05/02 21:00:14;;;;;;;2.25;1.58;;;;;;;2.88;100.00;99477.53;255879;1100;114155;-80
2021/05/02 21:05:16;;;;;;;1.33;1.23;;;;;;;3.00;100.00;99471.08;255245;1107;114047;-78
2021/05/02 21:10:18;;;;;;;1.63;1.48;;;;;;;2.89;100.00;99486.28;255028;1107;114052;-79
2021/05/02 21:15:20;;;;;;;2.03;1.88;;;;;;;3.03;100.00;99492.94;254921;1100;115380;-77
2021/05/02 21:26:30;;;;;;;3.25;2.28;;;;;;;2.98;100.00;99517.67;254957;1106;114076;-79
2021/05/02 21:31:35;;;;;;;2.75;2.55;;;;;;;3.05;100.00;99528.91;255350;1107;114046;-79
2021/05/02 21:36:37;;;;;;;2.63;2.43;;;;;;;2.86;100.00;99556.52;255029;1107;114265;-78
2021/05/02 21:41:39;;;;;;;2.70;2.50;;;;;;;2.82;100.00;99554.86;255586;1100;114037;-78
2021/05/02 21:46:43;;;;;;;2.43;2.23;;;;;;;2.74;100.00;99577.84;256207;1104;114022;-80
2021/05/02 21:51:45;;;;;;;1.85;1.75;;;;;;;2.73;100.00;99591.05;256328;1099;113875;-78
2021/05/02 21:56:50;;;;;;;1.68;1.53;;;;;;;2.77;100.00;99603.23;256203;1099;114362;-80
2021/05/02 22:01:52;;;;;;;2.45;1.50;;;;;;;2.82;100.00;99604.02;256085;1099;114270;-78
2021/05/02 22:06:54;;;;;;;1.50;1.40;;;;;;;2.79;100.00;99614.59;256184;1104;114061;-77
2021/05/02 22:11:57;;;;;;;1.25;1.25;;;;;;;2.86;100.00;99626.73;256136;1104;114178;-80
2021/05/02 22:16:58;;;;;;;1.87;1.73;;;;;;;2.92;100.00;99610.81;255725;1104;114351;-80
2021/05/02 22:22:00;;;;;;;1.80;1.70;;;;;;;2.91;100.00;99624.87;256233;1100;114384;-78
2021/05/02 22:27:01;;;;;;;1.75;1.48;;;;;;;2.99;100.00;99622.95;256051;1099;114482;-78
2021/05/02 22:32:04;;;;;;;1.50;1.43;;;;;;;3.10;100.00;99621.86;256249;1099;114272;-76
2021/05/02 22:37:05;;;;;;;2.08;1.88;;;;;;;3.18;100.00;99625.17;256475;1100;114034;-78
2021/05/02 22:42:07;;;;;;;2.15;1.95;;;;;;;3.25;100.00;99639.09;256322;1104;114453;-78
2021/05/02 22:47:09;;;;;;;3.65;3.13;;;;;;;3.36;100.00;99637.06;256053;1099;114924;-76
2021/05/02 22:52:10;;;;;;;2.60;2.40;;;;;;;3.32;100.00;99652.08;255965;1104;114247;-78
2021/05/02 22:57:12;;;;;;;2.15;1.95;;;;;;;3.55;100.00;99658.59;255964;1104;114078;-79
2021/05/02 23:02:14;;;;;;;2.20;2.00;;;;;;;3.52;100.00;99661.33;255851;1104;114533;-76